Time;durP1;ratioP1;P1;durP2;ratioP2;P2;SDS_P1;SDS_P2;PMS_P1;PMS_P2;Temp;Humidity;BMP_temperature;BMP_pressure;BME280_temperature;BME280_humidity;BME280_pressure;Samples;Min_cycle;Max_cycle;Signal;HPM_P1;HPM_P2
2023/04/25 00:01:13;;;;;;;1999.90;999.90;;;6.10;85.90;;;;;;5074505;28;20032;-73
2023/04/25 00:03:39;;;;;;;1999.90;999.90;;;6.10;86.40;;;;;;5075641;28;20032;-73
2023/04/25 00:06:06;;;;;;;1999.90;999.90;;;6.10;86.40;;;;;;5070266;28;20033;-73
2023/04/25 00:08:32;;;;;;;1999.90;999.90;;;6.10;86.10;;;;;;5074758;28;20579;-73
2023/04/25 00:10:58;;;;;;;1999.90;999.90;;;6.10;86.40;;;;;;5061501;28;20064;-73
2023/04/25 00:13:25;;;;;;;1999.90;999.90;;;6.10;86.10;;;;;;5079660;28;20024;-73
2023/04/25 00:15:52;;;;;;;1999.90;999.90;;;6.20;86.10;;;;;;5071321;28;20032;-73
2023/04/25 00:18:19;;;;;;;1999.90;999.90;;;6.20;86.10;;;;;;5072235;28;20107;-73
2023/04/25 00:20:46;;;;;;;1999.90;999.90;;;6.10;86.80;;;;;;5070546;28;20433;-73
2023/04/25 00:23:17;;;;;;;1999.90;999.90;;;6.10;87.50;;;;;;5072764;28;20070;-72
2023/04/25 00:25:43;;;;;;;1999.90;999.90;;;6.10;86.40;;;;;;5073398;28;20056;-71
2023/04/25 00:28:09;;;;;;;1999.90;999.90;;;6.20;86.00;;;;;;5067999;28;21817;-73
2023/04/25 00:30:35;;;;;;;1999.90;999.90;;;6.20;84.80;;;;;;5063140;28;20116;-73
2023/04/25 00:33:00;;;;;;;1999.90;999.90;;;6.20;85.80;;;;;;5077275;28;20116;-73
2023/04/25 00:35:26;;;;;;;1999.90;999.90;;;6.20;85.40;;;;;;5078703;28;20060;-72
2023/04/25 00:37:52;;;;;;;1999.90;999.90;;;6.30;85.20;;;;;;5061239;28;20056;-72
2023/04/25 00:40:17;;;;;;;1999.90;999.90;;;6.30;85.90;;;;;;5076672;28;20383;-72
2023/04/25 00:42:44;;;;;;;1999.90;999.90;;;6.30;86.50;;;;;;5078916;28;20040;-72
2023/04/25 00:45:14;;;;;;;1999.90;999.90;;;6.40;85.80;;;;;;5064147;28;20040;-73
2023/04/25 00:47:40;;;;;;;1999.90;999.90;;;6.40;85.40;;;;;;5073369;28;20630;-72
2023/04/25 00:50:07;;;;;;;1999.90;999.90;;;6.30;86.60;;;;;;5071673;28;20032;-72
2023/04/25 00:52:32;;;;;;;1999.90;999.90;;;6.30;86.80;;;;;;5080855;28;20039;-72
2023/04/25 00:54:59;;;;;;;1999.90;999.90;;;6.30;88.30;;;;;;5076909;28;20046;-72
2023/04/25 00:57:25;;;;;;;1999.90;999.90;;;6.20;89.80;;;;;;5079439;28;20056;-71
2023/04/25 00:59:52;;;;;;;1999.90;999.90;;;6.20;90.50;;;;;;5077945;28;20025;-72
2023/04/25 01:02:18;;;;;;;1999.90;999.90;;;6.20;91.10;;;;;;5075107;28;20025;-72
2023/04/25 01:04:44;;;;;;;1999.90;999.90;;;6.10;91.60;;;;;;5075794;28;20128;-73
2023/04/25 01:07:10;;;;;;;1999.90;999.90;;;5.60;95.20;;;;;;5046758;28;20064;-73
2023/04/25 01:09:36;;;;;;;1999.90;999.90;;;5.20;95.70;;;;;;5074361;28;20755;-74
2023/04/25 01:12:02;;;;;;;1999.90;999.90;;;5.10;98.40;;;;;;5078286;28;20119;-72
2023/04/25 01:14:29;;;;;;;1999.90;999.90;;;5.00;99.20;;;;;;5059848;28;20424;-72
2023/04/25 01:16:55;;;;;;;1999.90;999.90;;;5.00;99.90;;;;;;5071281;28;20039;-72
2023/04/25 01:19:21;;;;;;;1999.90;999.90;;;5.00;99.90;;;;;;5076469;28;20039;-72
2023/04/25 01:21:47;;;;;;;1999.90;999.90;;;5.00;99.90;;;;;;5068730;28;20482;-73
2023/04/25 01:24:13;;;;;;;1999.90;999.90;;;5.00;99.90;;;;;;5062408;28;20048;-72
2023/04/25 01:26:44;;;;;;;1999.90;999.90;;;5.00;99.90;;;;;;5064791;28;20110;-72
2023/04/25 01:29:10;;;;;;;1999.90;999.90;;;5.00;99.90;;;;;;5081075;28;20021;-72
2023/04/25 01:31:36;;;;;;;1999.90;999.90;;;5.00;99.90;;;;;;5077252;28;20436;-71
2023/04/25 01:34:02;;;;;;;1999.90;999.90;;;5.00;99.90;;;;;;5072854;28;20024;-71
2023/04/25 01:36:28;;;;;;;1999.90;999.90;;;4.90;99.90;;;;;;5074590;28;20073;-72
2023/04/25 01:38:54;;;;;;;1999.90;999.90;;;5.00;99.90;;;;;;5076591;28;20056;-72
2023/04/25 01:41:22;;;;;;;1999.90;999.90;;;5.00;99.90;;;;;;5076339;28;20049;-72
2023/04/25 01:43:48;;;;;;;1999.90;999.90;;;4.90;99.90;;;;;;5077659;28;20114;-72
2023/04/25 01:46:14;;;;;;;1999.90;999.90;;;4.90;99.90;;;;;;5077048;28;20168;-72
2023/04/25 01:48:40;;;;;;;1999.90;999.90;;;4.90;99.90;;;;;;5061677;28;20441;-73
2023/04/25 01:51:06;;;;;;;1999.90;999.90;;;5.00;99.90;;;;;;5076100;28;20114;-72
2023/04/25 01:53:32;;;;;;;1999.90;999.90;;;4.90;99.90;;;;;;5071560;28;20044;-72
2023/04/25 01:55:57;;;;;;;1999.90;999.90;;;4.90;99.90;;;;;;5070332;28;20021;-72
2023/04/25 01:58:23;;;;;;;1999.90;999.90;;;4.80;99.90;;;;;;5066665;28;20032;-72
2023/04/25 02:00:49;;;;;;;1999.90;999.90;;;4.80;99.90;;;;;;5051768;28;20099;-72
2023/04/25 02:03:15;;;;;;;1999.90;999.90;;;4.70;99.90;;;;;;5074998;28;20025;-72
2023/04/25 02:05:40;;;;;;;1999.90;999.90;;;4.70;99.90;;;;;;5073986;28;20057;-73
2023/04/25 02:08:08;;;;;;;1999.90;999.90;;;4.70;99.90;;;;;;5073905;28;21156;-73
2023/04/25 02:10:34;;;;;;;1999.90;999.90;;;4.70;99.90;;;;;;5074615;28;20049;-72
2023/04/25 02:13:01;;;;;;;1999.90;999.90;;;4.80;99.90;;;;;;5077358;28;20024;-73
2023/04/25 02:15:26;;;;;;;1999.90;999.90;;;4.80;99.90;;;;;;5075847;28;20028;-72
2023/04/25 02:17:52;;;;;;;1999.90;999.90;;;4.70;99.90;;;;;;5074219;28;20597;-73
2023/04/25 02:20:22;;;;;;;1999.90;999.90;;;4.70;99.90;;;;;;5074095;28;20390;-72
2023/04/25 02:22:48;;;;;;;1999.90;999.90;;;4.70;99.90;;;;;;5036606;28;1127728;-73
2023/04/25 02:25:15;;;;;;;1999.90;999.90;;;4.70;99.90;;;;;;5073979;28;20037;-73
2023/04/25 02:27:41;;;;;;;1999.90;999.90;;;4.70;99.90;;;;;;5060625;28;20040;-72
2023/04/25 02:30:07;;;;;;;1999.90;999.90;;;4.70;99.90;;;;;;5068503;28;20033;-72
2023/04/25 02:32:34;;;;;;;1999.90;999.90;;;4.70;99.90;;;;;;5073609;28;20048;-72
2023/04/25 02:35:03;;;;;;;1999.90;999.90;;;4.80;99.90;;;;;;5070238;28;20035;-73
2023/04/25 02:37:30;;;;;;;1999.90;999.90;;;4.80;99.90;;;;;;5070969;28;20021;-73
2023/04/25 02:39:55;;;;;;;1999.90;999.90;;;4.80;99.90;;;;;;5052355;28;20040;-72
2023/04/25 02:42:21;;;;;;;1999.90;999.90;;;4.80;99.90;;;;;;5064306;28;20035;-73
2023/04/25 02:44:47;;;;;;;1999.90;999.90;;;4.80;99.90;;;;;;5072677;28;20036;-73
2023/04/25 02:47:12;;;;;;;1999.90;999.90;;;4.80;99.90;;;;;;5078641;28;20032;-73
2023/04/25 02:49:38;;;;;;;1999.90;999.90;;;4.90;99.90;;;;;;5071183;28;20097;-72
2023/04/25 02:52:04;;;;;;;1999.90;999.90;;;4.90;99.90;;;;;;5067835;28;20394;-72
2023/04/25 02:54:30;;;;;;;1999.90;999.90;;;4.90;99.90;;;;;;5075069;28;20509;-73
2023/04/25 02:56:56;;;;;;;1999.90;999.90;;;5.00;99.90;;;;;;5060812;28;20453;-73
2023/04/25 02:59:21;;;;;;;1999.90;999.90;;;4.90;99.90;;;;;;5070423;28;20064;-73
2023/04/25 03:01:47;;;;;;;1999.90;999.90;;;5.00;99.90;;;;;;5062563;28;20055;-72
2023/04/25 03:04:13;;;;;;;1999.90;999.90;;;4.90;99.90;;;;;;5070775;28;20737;-74
2023/04/25 03:06:38;;;;;;;1999.90;999.90;;;4.90;99.90;;;;;;5075565;28;20086;-74
2023/04/25 03:09:04;;;;;;;1999.90;999.90;;;4.90;99.90;;;;;;5059450;28;20482;-72
2023/04/25 03:11:30;;;;;;;1999.90;999.90;;;4.90;99.90;;;;;;5061171;28;20040;-74
2023/04/25 03:13:55;;;;;;;1999.90;999.90;;;4.90;99.90;;;;;;5072414;28;20120;-73
2023/04/25 03:16:22;;;;;;;1999.90;999.90;;;4.90;99.90;;;;;;5068993;28;20425;-73
2023/04/25 03:18:47;;;;;;;1999.90;999.90;;;4.90;99.90;;;;;;5070572;28;20547;-73
2023/04/25 03:21:13;;;;;;;1999.90;999.90;;;4.80;99.90;;;;;;5076444;28;20057;-73
2023/04/25 03:23:39;;;;;;;1999.90;999.90;;;4.80;99.90;;;;;;5074109;28;20080;-73
2023/04/25 03:26:04;;;;;;;1999.90;999.90;;;4.80;99.90;;;;;;5061794;28;20089;-74
2023/04/25 03:28:30;;;;;;;1999.90;999.90;;;4.80;99.90;;;;;;5070499;28;20124;-74
2023/04/25 03:30:56;;;;;;;1999.90;999.90;;;4.80;99.90;;;;;;5074309;28;20036;-72
2023/04/25 03:33:22;;;;;;;1999.90;999.90;;;4.80;99.90;;;;;;5075951;28;20132;-72
2023/04/25 03:35:47;;;;;;;1999.90;999.90;;;4.80;99.90;;;;;;5075425;28;20036;-72
2023/04/25 03:38:13;;;;;;;1999.90;999.90;;;4.80;99.90;;;;;;5075048;28;20082;-74
2023/04/25 03:40:38;;;;;;;1999.90;999.90;;;4.80;99.90;;;;;;5075286;28;20368;-73
2023/04/25 03:43:04;;;;;;;1999.90;999.90;;;4.80;99.90;;;;;;5075100;28;20482;-72
2023/04/25 03:45:31;;;;;;;1999.90;999.90;;;4.70;99.90;;;;;;5074211;28;20375;-72
2023/04/25 03:47:56;;;;;;;1999.90;999.90;;;4.70;99.90;;;;;;5075617;28;20032;-73
2023/04/25 03:50:22;;;;;;;1999.90;999.90;;;4.70;99.90;;;;;;5059022;28;20033;-73
2023/04/25 03:52:47;;;;;;;1999.90;999.90;;;4.70;99.90;;;;;;5077901;28;20036;-74
2023/04/25 03:55:13;;;;;;;1999.90;999.90;;;4.70;99.90;;;;;;5072684;28;20024;-73
2023/04/25 03:57:39;;;;;;;1999.90;999.90;;;4.70;99.90;;;;;;5075632;28;20033;-73
2023/04/25 04:00:06;;;;;;;1999.90;999.90;;;4.60;99.90;;;;;;5066182;28;20033;-72
2023/04/25 04:02:32;;;;;;;1999.90;999.90;;;4.60;99.90;;;;;;5079717;28;20028;-72
2023/04/25 04:04:58;;;;;;;1999.90;999.90;;;4.60;99.90;;;;;;5072702;28;20036;-72
2023/04/25 04:07:24;;;;;;;1999.90;999.90;;;4.60;99.90;;;;;;5069934;28;20039;-72
2023/04/25 04:09:50;;;;;;;1999.90;999.90;;;4.60;99.90;;;;;;5052047;28;20029;-72
2023/04/25 04:12:15;;;;;;;1999.90;999.90;;;4.60;99.90;;;;;;5057150;28;20033;-74
2023/04/25 04:14:41;;;;;;;1999.90;999.90;;;4.60;99.90;;;;;;5069457;28;20035;-72
2023/04/25 04:17:07;;;;;;;1999.90;999.90;;;4.60;99.90;;;;;;5062774;28;20100;-75
2023/04/25 04:19:32;;;;;;;1999.90;999.90;;;4.60;99.90;;;;;;5065339;28;20122;-73
2023/04/25 04:21:58;;;;;;;1999.90;999.90;;;4.60;99.90;;;;;;5054146;28;20439;-73
2023/04/25 04:24:23;;;;;;;1999.90;999.90;;;4.50;99.90;;;;;;5050124;28;20072;-73
2023/04/25 04:26:50;;;;;;;1999.90;999.90;;;4.50;99.90;;;;;;5064906;28;20021;-73
2023/04/25 04:29:20;;;;;;;1999.90;999.90;;;4.50;99.90;;;;;;5068095;28;20483;-72
2023/04/25 04:31:48;;;;;;;1999.90;999.90;;;4.40;99.90;;;;;;5047155;28;20041;-74
2023/04/25 04:34:16;;;;;;;1999.90;999.90;;;4.40;99.90;;;;;;5047987;28;20032;-73
2023/04/25 04:36:42;;;;;;;1999.90;999.90;;;4.40;99.90;;;;;;5069860;28;20379;-74
2023/04/25 04:39:09;;;;;;;1999.90;999.90;;;4.40;99.90;;;;;;5066429;28;20020;-74
2023/04/25 04:41:34;;;;;;;1999.90;999.90;;;4.40;99.90;;;;;;5069316;28;20140;-74
2023/04/25 04:44:01;;;;;;;1999.90;999.90;;;4.40;99.90;;;;;;5053602;28;20124;-74
2023/04/25 04:46:27;;;;;;;1999.90;999.90;;;4.40;99.90;;;;;;5065155;28;20439;-75
2023/04/25 04:48:53;;;;;;;1999.90;999.90;;;4.40;99.90;;;;;;5054826;28;20151;-74
2023/04/25 04:51:20;;;;;;;1999.90;999.90;;;4.30;99.90;;;;;;5054481;28;20147;-74
2023/04/25 04:53:46;;;;;;;1999.90;999.90;;;4.30;99.90;;;;;;5055544;28;20684;-74
2023/04/25 04:56:11;;;;;;;1999.90;999.90;;;4.30;99.90;;;;;;5069141;28;20591;-74
2023/04/25 04:58:37;;;;;;;1999.90;999.90;;;4.20;99.90;;;;;;5067907;28;20036;-74
2023/04/25 05:01:03;;;;;;;1999.90;999.90;;;4.10;99.90;;;;;;5039054;28;20119;-74
2023/04/25 05:03:28;;;;;;;1999.90;999.90;;;4.20;99.90;;;;;;5068117;28;20036;-75
2023/04/25 05:05:54;;;;;;;1999.90;999.90;;;4.10;99.90;;;;;;5058479;28;20119;-74
2023/04/25 05:08:20;;;;;;;1999.90;999.90;;;4.20;99.90;;;;;;5060973;28;20473;-75
2023/04/25 05:10:46;;;;;;;1999.90;999.90;;;4.10;99.90;;;;;;5075024;28;20043;-75
2023/04/25 05:13:11;;;;;;;1999.90;999.90;;;4.10;99.90;;;;;;5052994;28;20035;-74
2023/04/25 05:15:37;;;;;;;1999.90;999.90;;;4.10;99.90;;;;;;5067652;28;20491;-74
2023/04/25 05:18:03;;;;;;;1999.90;999.90;;;4.00;99.90;;;;;;5073922;28;20484;-74
2023/04/25 05:20:28;;;;;;;1999.90;999.90;;;4.10;99.90;;;;;;5076714;28;20486;-75
2023/04/25 05:22:54;;;;;;;1999.90;999.90;;;4.30;99.90;;;;;;5072137;28;20486;-74
2023/04/25 05:25:20;;;;;;;1999.90;999.90;;;4.40;99.90;;;;;;5077353;28;20494;-75
2023/04/25 05:27:46;;;;;;;1999.90;999.90;;;4.60;99.90;;;;;;5070933;28;20043;-76
2023/04/25 05:30:11;;;;;;;1999.90;999.90;;;4.80;99.90;;;;;;5050753;28;20394;-78
2023/04/25 05:32:37;;;;;;;1999.90;999.90;;;4.90;99.90;;;;;;5074694;28;20071;-75
2023/04/25 05:35:03;;;;;;;1999.90;999.90;;;5.00;99.90;;;;;;5080912;28;20048;-76
2023/04/25 05:37:30;;;;;;;1999.90;999.90;;;5.10;99.90;;;;;;5076907;28;20024;-77
2023/04/25 05:39:56;;;;;;;1999.90;999.90;;;5.30;99.90;;;;;;5060478;28;20063;-77
2023/04/25 05:42:22;;;;;;;1999.90;999.90;;;5.30;99.90;;;;;;5069727;28;20092;-77
2023/04/25 05:44:47;;;;;;;1999.90;999.90;;;5.50;99.90;;;;;;5060054;28;20032;-77
2023/04/25 05:47:13;;;;;;;1999.90;999.90;;;5.70;99.90;;;;;;5058594;28;20090;-77
2023/04/25 05:49:39;;;;;;;1999.90;999.90;;;5.80;99.90;;;;;;5061161;28;20039;-77
2023/04/25 05:52:04;;;;;;;1999.90;999.90;;;5.80;99.90;;;;;;5073801;28;20406;-77
2023/04/25 05:54:30;;;;;;;1999.90;999.90;;;5.80;99.90;;;;;;5080685;28;20035;-77
2023/04/25 05:56:57;;;;;;;1999.90;999.90;;;6.10;99.90;;;;;;5056894;28;20033;-77
2023/04/25 05:59:23;;;;;;;1999.90;999.90;;;6.00;99.90;;;;;;5078097;28;20034;-75
2023/04/25 06:01:48;;;;;;;1999.90;999.90;;;5.90;99.90;;;;;;5074172;28;20029;-75
2023/04/25 06:04:14;;;;;;;1999.90;999.90;;;5.80;99.90;;;;;;5075478;28;20047;-75
2023/04/25 06:06:39;;;;;;;1999.90;999.90;;;5.80;99.70;;;;;;5072481;28;20029;-75
2023/04/25 06:09:05;;;;;;;1999.90;999.90;;;5.70;99.90;;;;;;5062067;28;20044;-74
2023/04/25 06:11:31;;;;;;;1999.90;999.90;;;5.80;99.90;;;;;;5059494;28;20037;-74
2023/04/25 06:13:56;;;;;;;1999.90;999.90;;;5.90;99.90;;;;;;5073964;28;20035;-74
2023/04/25 06:16:22;;;;;;;1999.90;999.90;;;6.10;99.90;;;;;;5070646;28;20029;-75
2023/04/25 06:18:48;;;;;;;1999.90;999.90;;;6.30;99.90;;;;;;5061996;28;20033;-75
2023/04/25 06:21:13;;;;;;;1999.90;999.90;;;6.20;99.60;;;;;;5058817;28;20064;-75
2023/04/25 06:23:39;;;;;;;1999.90;999.90;;;6.30;99.00;;;;;;5064620;28;20059;-75
2023/04/25 06:26:05;;;;;;;1999.90;999.90;;;6.40;99.90;;;;;;5074356;28;20090;-75
2023/04/25 06:28:30;;;;;;;1999.90;999.90;;;6.50;99.00;;;;;;5057625;28;20036;-75
2023/04/25 06:30:56;;;;;;;1999.90;999.90;;;6.50;98.30;;;;;;5069795;28;20036;-77
2023/04/25 06:33:24;;;;;;;1999.90;999.90;;;6.60;99.90;;;;;;5056529;28;20073;-75
2023/04/25 06:35:49;;;;;;;1999.90;999.90;;;6.80;99.60;;;;;;5074249;28;20537;-76
2023/04/25 06:38:15;;;;;;;1999.90;999.90;;;6.90;97.80;;;;;;5055609;28;20104;-77
2023/04/25 06:40:41;;;;;;;1999.90;999.90;;;7.20;98.40;;;;;;5074005;28;20028;-76
2023/04/25 06:43:06;;;;;;;1999.90;999.90;;;7.50;95.10;;;;;;5056593;28;20032;-76
2023/04/25 06:45:32;;;;;;;1999.90;999.90;;;7.70;94.60;;;;;;5070301;28;20108;-77
2023/04/25 06:47:58;;;;;;;1999.90;999.90;;;8.00;96.60;;;;;;5060326;28;20062;-76
2023/04/25 06:50:23;;;;;;;1999.90;999.90;;;8.30;96.60;;;;;;5039902;28;20048;-76
2023/04/25 06:52:49;;;;;;;1999.90;999.90;;;8.30;92.80;;;;;;5074617;28;20032;-76
2023/04/25 06:55:15;;;;;;;1999.90;999.90;;;8.30;96.40;;;;;;5057919;28;20029;-76
2023/04/25 06:57:40;;;;;;;1999.90;999.90;;;8.60;97.90;;;;;;5050352;28;20110;-76
2023/04/25 07:00:09;;;;;;;1999.90;999.90;;;8.60;94.50;;;;;;5067068;28;20033;-76
2023/04/25 07:02:35;;;;;;;1999.90;999.90;;;8.60;93.90;;;;;;5068072;28;20041;-76
2023/04/25 07:05:03;;;;;;;1999.90;999.90;;;8.90;90.50;;;;;;5068344;28;20041;-76
2023/04/25 07:07:30;;;;;;;1999.90;999.90;;;9.10;91.90;;;;;;5069954;28;20162;-74
2023/04/25 07:09:55;;;;;;;1999.90;999.90;;;9.00;91.30;;;;;;5044443;28;20418;-76
2023/04/25 07:12:21;;;;;;;1999.90;999.90;;;9.10;94.80;;;;;;5067601;28;20038;-74
2023/04/25 07:14:47;;;;;;;1999.90;999.90;;;9.40;92.90;;;;;;5069913;28;20035;-75
2023/04/25 07:17:13;;;;;;;1999.90;999.90;;;9.40;90.30;;;;;;5066930;28;20032;-75
2023/04/25 07:19:39;;;;;;;1999.90;999.90;;;9.50;92.90;;;;;;5067350;28;20106;-75
2023/04/25 07:22:06;;;;;;;1999.90;999.90;;;9.10;88.40;;;;;;5067488;28;20024;-75
2023/04/25 07:24:32;;;;;;;1999.90;999.90;;;9.10;86.70;;;;;;5066229;28;20052;-76
2023/04/25 07:26:58;;;;;;;1999.90;999.90;;;9.40;86.70;;;;;;5054980;28;20371;-76
2023/04/25 07:29:24;;;;;;;1999.90;999.90;;;9.50;81.70;;;;;;5064286;28;20463;-75
2023/04/25 07:31:49;;;;;;;1999.90;999.90;;;10.00;81.20;;;;;;5065591;28;20036;-76
2023/04/25 07:34:15;;;;;;;1999.90;999.90;;;10.30;75.60;;;;;;5050691;28;20052;-76
2023/04/25 07:36:41;;;;;;;1999.90;999.90;;;10.50;72.50;;;;;;5055447;28;20033;-76
2023/04/25 07:39:08;;;;;;;1999.90;999.90;;;10.60;74.60;;;;;;5070031;28;20028;-75
2023/04/25 07:41:34;;;;;;;1999.90;999.90;;;10.50;71.90;;;;;;5068315;28;20055;-75
2023/04/25 07:44:00;;;;;;;1999.90;999.90;;;10.00;73.10;;;;;;5071983;28;20037;-75
2023/04/25 07:46:26;;;;;;;1999.90;999.90;;;9.80;71.90;;;;;;5066655;28;20032;-75
2023/04/25 07:48:51;;;;;;;1999.90;999.90;;;10.30;74.60;;;;;;5055149;28;20046;-76
2023/04/25 07:51:19;;;;;;;1999.90;999.90;;;10.50;73.60;;;;;;5046549;28;20511;-76
2023/04/25 07:53:45;;;;;;;1999.90;999.90;;;10.70;71.60;;;;;;5068440;28;20032;-74
2023/04/25 07:56:11;;;;;;;1999.90;999.90;;;10.60;70.10;;;;;;5053793;28;20033;-76
2023/04/25 07:58:37;;;;;;;1999.90;999.90;;;10.50;69.90;;;;;;5066644;28;20112;-76
2023/04/25 08:01:03;;;;;;;1999.90;999.90;;;10.30;71.20;;;;;;5067755;28;20024;-76
2023/04/25 08:03:28;;;;;;;1999.90;999.90;;;10.20;71.80;;;;;;5065147;28;20032;-76
2023/04/25 08:05:54;;;;;;;1999.90;999.90;;;9.90;71.50;;;;;;5054450;28;20036;-76
2023/04/25 08:08:20;;;;;;;1999.90;999.90;;;9.80;73.00;;;;;;5068198;28;20484;-75
2023/04/25 08:10:47;;;;;;;1999.90;999.90;;;9.80;73.20;;;;;;5056620;28;20025;-75
2023/04/25 08:13:13;;;;;;;1999.90;999.90;;;9.70;72.50;;;;;;5073814;28;20029;-76
2023/04/25 08:15:39;;;;;;;1999.90;999.90;;;9.70;71.20;;;;;;5055617;28;20047;-78
2023/04/25 08:18:05;;;;;;;1999.90;999.90;;;9.60;71.10;;;;;;5065929;28;20024;-76
2023/04/25 08:20:30;;;;;;;1999.90;999.90;;;9.70;70.30;;;;;;5038664;28;20554;-76
2023/04/25 08:22:56;;;;;;;1999.90;999.90;;;9.70;72.20;;;;;;5059999;28;20052;-76
2023/04/25 08:25:22;;;;;;;1999.90;999.90;;;9.60;70.70;;;;;;5038203;28;20132;-76
2023/04/25 08:27:47;;;;;;;1999.90;999.90;;;9.60;71.20;;;;;;5045243;28;20061;-76
2023/04/25 08:30:14;;;;;;;1999.90;999.90;;;9.60;72.00;;;;;;5062909;28;20040;-75
2023/04/25 08:32:39;;;;;;;1999.90;999.90;;;9.70;70.30;;;;;;5063561;28;20028;-75
2023/04/25 08:35:06;;;;;;;1999.90;999.90;;;9.60;73.30;;;;;;5063845;28;20043;-76
2023/04/25 08:37:32;;;;;;;1999.90;999.90;;;9.60;71.70;;;;;;5054125;28;20136;-75
2023/04/25 08:39:58;;;;;;;1999.90;999.90;;;9.80;71.80;;;;;;5069383;28;20107;-75
2023/04/25 08:42:24;;;;;;;1999.90;999.90;;;9.50;73.50;;;;;;5053332;28;20028;-75
2023/04/25 08:44:52;;;;;;;1999.90;999.90;;;9.30;75.40;;;;;;5063835;28;20131;-75
2023/04/25 08:47:22;;;;;;;1999.90;999.90;;;9.40;71.70;;;;;;5064753;28;20036;-75
2023/04/25 08:49:49;;;;;;;1999.90;999.90;;;9.40;70.50;;;;;;5061181;28;20141;-76
2023/04/25 08:52:20;;;;;;;1999.90;999.90;;;9.50;71.00;;;;;;5050101;28;20063;-75
2023/04/25 08:54:49;;;;;;;1999.90;999.90;;;9.70;71.90;;;;;;5071965;28;20032;-75
2023/04/25 08:57:15;;;;;;;1999.90;999.90;;;9.80;72.50;;;;;;5061098;28;20052;-75
2023/04/25 08:59:45;;;;;;;1999.90;999.90;;;9.80;72.10;;;;;;5073863;28;20036;-75
2023/04/25 09:02:16;;;;;;;1999.90;999.90;;;9.70;72.70;;;;;;5066064;28;20487;-75
2023/04/25 09:04:45;;;;;;;1999.90;999.90;;;9.60;72.40;;;;;;5063378;28;20408;-75
2023/04/25 09:07:11;;;;;;;1999.90;999.90;;;9.40;73.40;;;;;;5052494;28;20039;-75
2023/04/25 09:09:37;;;;;;;1999.90;999.90;;;9.20;74.20;;;;;;5068418;28;20033;-75
2023/04/25 09:12:02;;;;;;;1999.90;999.90;;;9.30;76.80;;;;;;5054209;28;20031;-75
2023/04/25 09:14:28;;;;;;;1999.90;999.90;;;8.80;81.20;;;;;;5059458;28;20036;-79
2023/04/25 09:16:57;;;;;;;1999.90;999.90;;;7.80;89.40;;;;;;5039983;28;20028;-76
2023/04/25 09:19:25;;;;;;;1999.90;999.90;;;7.00;91.80;;;;;;5070050;28;20013;-77
2023/04/25 09:21:53;;;;;;;1999.90;999.90;;;6.60;95.60;;;;;;5072779;28;20390;-77
2023/04/25 09:24:32;;;;;;;1999.90;999.90;;;5.90;94.50;;;;;;5070083;28;20661;-78
2023/04/25 09:26:58;;;;;;;1999.90;999.90;;;6.00;98.30;;;;;;5065318;28;20078;-77
2023/04/25 09:29:34;;;;;;;1999.90;999.90;;;5.80;96.60;;;;;;5066010;28;20064;-75
2023/04/25 09:32:21;;;;;;;1999.90;999.90;;;5.70;97.30;;;;;;5073479;28;20458;-75
2023/04/25 09:34:49;;;;;;;1999.90;999.90;;;5.50;97.80;;;;;;5049589;28;20068;-76
2023/04/25 09:37:33;;;;;;;1999.90;999.90;;;5.60;99.30;;;;;;5063168;28;20445;-76
2023/04/25 09:40:05;;;;;;;1999.90;999.90;;;5.60;99.90;;;;;;5074149;28;20025;-76
2023/04/25 09:42:31;;;;;;;1999.90;999.90;;;5.70;99.90;;;;;;5060899;28;20032;-77
2023/04/25 09:44:58;;;;;;;1999.90;999.90;;;5.30;99.50;;;;;;5062293;28;20029;-76
2023/04/25 09:47:26;;;;;;;1999.90;999.90;;;5.20;98.80;;;;;;5070353;28;20045;-77
2023/04/25 09:49:53;;;;;;;1999.90;999.90;;;5.10;99.80;;;;;;5050922;28;20091;-78
2023/04/25 09:52:23;;;;;;;1999.90;999.90;;;5.10;99.90;;;;;;5072196;28;20032;-77
2023/04/25 09:54:50;;;;;;;1999.90;999.90;;;5.10;99.90;;;;;;5052063;28;20043;-77
2023/04/25 09:57:21;;;;;;;1999.90;999.90;;;5.20;99.90;;;;;;5068614;28;20026;-76
2023/04/25 09:59:49;;;;;;;1999.90;999.90;;;5.00;99.90;;;;;;5064259;28;20131;-76
2023/04/25 10:02:20;;;;;;;1999.90;999.90;;;5.10;99.90;;;;;;5056172;28;20514;-76
2023/04/25 10:04:51;;;;;;;1999.90;999.90;;;5.10;99.90;;;;;;5067962;28;20147;-68
2023/04/25 10:07:17;;;;;;;1999.90;999.90;;;5.30;99.90;;;;;;5067453;28;20131;-76
2023/04/25 10:09:47;;;;;;;1999.90;999.90;;;5.30;99.90;;;;;;5053306;28;20139;-76
2023/04/25 10:12:12;;;;;;;1999.90;999.90;;;5.40;99.90;;;;;;5073919;28;20032;-77
2023/04/25 10:14:39;;;;;;;1999.90;999.90;;;5.60;99.90;;;;;;5071200;28;20055;-77
2023/04/25 10:17:07;;;;;;;1999.90;999.90;;;6.00;99.90;;;;;;5069280;28;20065;-76
2023/04/25 10:19:33;;;;;;;1999.90;999.90;;;6.20;99.90;;;;;;5070007;28;20016;-75
2023/04/25 10:22:11;;;;;;;1999.90;999.90;;;6.00;99.90;;;;;;5071841;28;20060;-76
2023/04/25 10:24:38;;;;;;;1999.90;999.90;;;6.00;99.90;;;;;;5064999;28;20114;-75
2023/04/25 10:27:05;;;;;;;1999.90;999.90;;;6.20;99.90;;;;;;5058390;28;20275;-76
2023/04/25 10:29:30;;;;;;;1999.90;999.90;;;6.10;99.90;;;;;;5070125;28;20028;-78
2023/04/25 10:31:57;;;;;;;1999.90;999.90;;;5.80;99.90;;;;;;5041956;28;20036;-75
2023/04/25 10:34:46;;;;;;;1999.90;999.90;;;6.00;99.90;;;;;;5071762;28;20151;-76
2023/04/25 10:37:13;;;;;;;1999.90;999.90;;;6.30;99.90;;;;;;5067390;28;20020;-75
2023/04/25 10:39:41;;;;;;;1999.90;999.90;;;6.40;99.90;;;;;;5056832;28;20050;-74
2023/04/25 10:42:07;;;;;;;1999.90;999.90;;;6.70;99.90;;;;;;5073639;28;20110;-75
2023/04/25 10:44:37;;;;;;;1999.90;999.90;;;6.90;99.90;;;;;;5071030;28;20043;-75
2023/04/25 10:47:05;;;;;;;1999.90;999.90;;;7.00;99.90;;;;;;5065852;28;20020;-75
2023/04/25 10:49:36;;;;;;;1999.90;999.90;;;6.90;99.90;;;;;;5058601;28;20107;-76
2023/04/25 10:52:18;;;;;;;1999.90;999.90;;;6.60;98.30;;;;;;5056736;28;20055;-76
2023/04/25 10:54:47;;;;;;;1999.90;999.90;;;6.30;99.90;;;;;;5071564;28;20067;-76
2023/04/25 10:57:41;;;;;;;1999.90;999.90;;;6.20;99.90;;;;;;5056757;28;20033;-74
2023/04/25 11:00:16;;;;;;;1999.90;999.90;;;6.30;99.90;;;;;;5066483;28;20024;-75
2023/04/25 11:02:53;;;;;;;1057.38;554.42;;;6.10;99.20;;;;;;5050989;28;20032;-75
2023/04/25 11:05:34;;;;;;;1999.90;999.90;;;6.10;98.70;;;;;;5068653;28;20032;-75
2023/04/25 11:08:00;;;;;;;1999.90;999.90;;;6.00;99.90;;;;;;5054659;28;20035;-75
2023/04/25 11:10:30;;;;;;;1999.90;999.90;;;6.10;99.90;;;;;;5070394;28;20544;-74
2023/04/25 11:12:58;;;;;;;1999.90;999.90;;;6.30;99.90;;;;;;5055242;28;20043;-75
2023/04/25 11:15:24;;;;;;;1999.90;999.90;;;6.30;99.90;;;;;;5053426;28;20036;-76
2023/04/25 11:17:54;;;;;;;1999.90;999.90;;;6.40;99.90;;;;;;5057402;28;20025;-76
2023/04/25 11:20:21;;;;;;;1999.90;999.90;;;6.70;99.90;;;;;;5071175;28;20125;-76
2023/04/25 11:22:47;;;;;;;1999.90;999.90;;;6.90;99.90;;;;;;5055888;28;20040;-74
2023/04/25 11:25:14;;;;;;;1999.90;999.90;;;7.00;99.90;;;;;;5070463;28;20162;-74
2023/04/25 11:27:53;;;;;;;1511.82;761.22;;;7.20;99.90;;;;;;5077369;28;20040;-72
2023/04/25 11:30:20;;;;;;;1999.90;999.90;;;6.80;99.90;;;;;;5073274;28;20029;-73
2023/04/25 11:32:46;;;;;;;1999.90;999.90;;;6.60;99.90;;;;;;5051909;28;20448;-74
2023/04/25 11:35:13;;;;;;;1999.90;999.90;;;6.50;99.90;;;;;;5068899;28;20108;-74
2023/04/25 11:37:40;;;;;;;1999.90;999.90;;;6.40;99.90;;;;;;5067248;28;20725;-74
2023/04/25 11:40:08;;;;;;;1999.90;999.90;;;6.20;99.90;;;;;;5067628;28;20096;-74
2023/04/25 11:42:34;;;;;;;1038.63;536.70;;;6.20;99.90;;;;;;5069653;28;20040;-74
2023/04/25 11:45:00;;;;;;;1999.90;999.90;;;6.00;99.00;;;;;;5046089;28;20035;-78
2023/04/25 11:47:30;;;;;;;1999.90;999.90;;;6.00;99.90;;;;;;5069551;28;20371;-77
2023/04/25 11:49:57;;;;;;;1999.90;999.90;;;6.10;99.90;;;;;;5051076;28;20036;-76
2023/04/25 11:52:23;;;;;;;1999.90;999.90;;;6.40;99.90;;;;;;5036839;28;20292;-76
2023/04/25 11:54:48;;;;;;;1999.90;999.90;;;6.70;99.90;;;;;;5072414;28;20100;-77
2023/04/25 11:57:14;;;;;;;1999.90;999.90;;;6.70;99.20;;;;;;5054307;28;20071;-75
2023/04/25 11:59:40;;;;;;;1999.90;999.90;;;6.40;99.30;;;;;;5070772;28;20772;-76
2023/04/25 12:02:06;;;;;;;1999.90;999.90;;;6.20;99.90;;;;;;5045121;28;20085;-76
2023/04/25 12:04:32;;;;;;;1999.90;999.90;;;6.20;99.20;;;;;;5061145;28;20035;-77
2023/04/25 12:07:00;;;;;;;1999.90;999.90;;;6.30;99.70;;;;;;5066617;28;20028;-76